Time;durP1;ratioP1;P1;durP2;ratioP2;P2;SDS_P1;SDS_P2;PMS_P1;PMS_P2;Temp;Humidity;BMP_temperature;BMP_pressure;BME280_temperature;BME280_humidity;BME280_pressure;Samples;Min_cycle;Max_cycle;Signal;HPM_P1;HPM_P2
2021/12/14 00:03:56;;;;;;;13.98;11.18;;;;;;;7.59;100.00;102954.19;10544045;28;20052;-58
2021/12/14 00:09:05;;;;;;;15.27;10.07;;;;;;;7.39;100.00;102941.34;10543657;28;20044;-57
2021/12/14 00:19:45;;;;;;;13.65;10.57;;;;;;;7.30;100.00;102936.25;10542893;28;20050;-58
2021/12/14 00:24:47;;;;;;;13.10;10.50;;;;;;;7.40;100.00;102937.03;10542565;28;20040;-59
2021/12/14 00:29:54;;;;;;;14.20;10.00;;;;;;;7.48;100.00;102939.53;10542457;28;20502;-59
2021/12/14 00:34:59;;;;;;;15.07;10.40;;;;;;;7.28;100.00;102940.63;10542481;28;20048;-58
2021/12/14 00:40:26;;;;;;;15.73;11.05;;;;;;;7.37;100.00;102926.63;10541985;28;20051;-57
2021/12/14 00:45:32;;;;;;;12.93;9.35;;;;;;;7.51;100.00;102953.41;10540893;28;20400;-57
2021/12/14 00:50:35;;;;;;;14.38;10.60;;;;;;;7.58;100.00;102957.69;10541965;28;20059;-58
2021/12/14 00:55:41;;;;;;;15.95;11.25;;;;;;;7.42;100.00;102928.31;10541293;28;20055;-57
2021/12/14 01:00:48;;;;;;;15.50;12.10;;;;;;;7.41;100.00;102955.25;10541528;28;20059;-57
2021/12/14 01:05:51;;;;;;;13.13;9.82;;;;;;;7.71;100.00;102973.22;10540158;28;20044;-58
2021/12/14 01:11:06;;;;;;;16.73;13.05;;;;;;;7.55;100.00;102957.72;10541537;28;20067;-57
2021/12/14 01:16:18;;;;;;;14.80;10.88;;;;;;;7.66;100.00;102941.09;10540876;28;20040;-58
2021/12/14 01:21:45;;;;;;;13.32;10.50;;;;;;;7.49;100.00;102942.13;10540781;28;20048;-58
2021/12/14 01:26:47;;;;;;;16.08;12.13;;;;;;;7.54;100.00;102940.34;10539691;28;20052;-57
2021/12/14 01:31:51;;;;;;;13.38;9.75;;;;;;;7.61;100.00;102946.34;10540176;28;20047;-58
2021/12/14 01:36:58;;;;;;;16.20;11.52;;;;;;;7.33;100.00;102910.16;10538961;28;20422;-57
2021/12/14 01:42:17;;;;;;;16.23;11.45;;;;;;;7.52;100.00;102933.44;10540506;28;20040;-57
2021/12/14 01:47:23;;;;;;;14.52;11.00;;;;;;;7.40;100.00;102895.34;10540481;28;20058;-57
2021/12/14 01:52:32;;;;;;;12.65;9.93;;;;;;;7.45;100.00;102906.56;10540439;28;20048;-57
2021/12/14 01:57:35;;;;;;;17.33;11.70;;;;;;;7.41;100.00;102917.88;10539409;28;20056;-58
2021/12/14 02:02:44;;;;;;;11.32;9.43;;;;;;;7.51;100.00;102905.63;10539361;28;20052;-58
2021/12/14 02:07:47;;;;;;;15.95;13.10;;;;;;;7.65;100.00;102908.06;10539906;28;20117;-57
2021/12/14 02:12:49;;;;;;;21.65;14.27;;;;;;;7.33;100.00;102867.59;10537996;28;20098;-57
2021/12/14 02:17:54;;;;;;;19.98;13.63;;;;;;;7.58;100.00;102887.31;10539428;28;20040;-58
2021/12/14 02:22:57;;;;;;;20.80;15.27;;;;;;;7.50;100.00;102909.09;10538903;28;20063;-57
2021/12/14 02:28:08;;;;;;;20.92;15.70;;;;;;;7.54;100.00;102892.56;10539517;28;20040;-57
2021/12/14 02:33:18;;;;;;;23.27;17.63;;;;;;;7.49;100.00;102892.63;10538565;28;20055;-57
2021/12/14 02:38:20;;;;;;;26.55;16.88;;;;;;;7.61;100.00;102910.72;10538049;28;20051;-57
2021/12/14 02:43:37;;;;;;;22.35;16.88;;;;;;;7.52;100.00;102895.19;10538542;28;20052;-57
2021/12/14 02:48:41;;;;;;;20.33;15.98;;;;;;;7.51;100.00;102898.66;10537820;28;20477;-58
2021/12/14 02:53:46;;;;;;;20.13;14.35;;;;;;;7.41;100.00;102873.59;10538679;28;20047;-58
2021/12/14 02:58:49;;;;;;;21.77;16.98;;;;;;;7.33;100.00;102871.09;10539162;28;20043;-59
2021/12/14 03:03:52;;;;;;;20.88;15.90;;;;;;;7.33;100.00;102886.72;10538292;28;20123;-57
2021/12/14 03:09:09;;;;;;;18.38;14.32;;;;;;;7.52;100.00;102883.91;10542412;28;20044;-58
2021/12/14 03:14:11;;;;;;;23.42;15.55;;;;;;;7.30;100.00;102860.69;10545342;28;20055;-59
2021/12/14 03:19:13;;;;;;;19.15;14.75;;;;;;;7.40;100.00;102843.22;10545652;28;20044;-58
2021/12/14 03:24:18;;;;;;;20.63;15.88;;;;;;;7.40;100.00;102845.81;10545038;28;20131;-57
2021/12/14 03:29:28;;;;;;;19.70;15.20;;;;;;;7.47;100.00;102878.75;10545254;28;20047;-59
2021/12/14 03:34:35;;;;;;;18.70;15.02;;;;;;;7.37;100.00;102866.69;10545410;28;20062;-60
2021/12/14 03:39:48;;;;;;;15.95;14.13;;;;;;;7.56;100.00;102867.34;10544290;28;20040;-59
2021/12/14 03:44:54;;;;;;;21.40;16.85;;;;;;;7.40;100.00;102856.25;10544575;28;20062;-59
2021/12/14 03:50:01;;;;;;;21.63;16.67;;;;;;;7.44;100.00;102850.09;10544629;28;20044;-59
2021/12/14 03:55:11;;;;;;;24.20;15.25;;;;;;;7.47;100.00;102883.09;10542700;28;20071;-56
2021/12/14 04:00:21;;;;;;;24.50;16.58;;;;;;;7.37;100.00;102883.19;10543718;28;20054;-59
2021/12/14 04:05:24;;;;;;;19.38;14.43;;;;;;;7.44;100.00;102883.97;10543489;28;20064;-57
2021/12/14 04:10:30;;;;;;;17.95;14.52;;;;;;;7.25;100.00;102896.34;10543481;28;20067;-57
2021/12/14 04:15:33;;;;;;;20.40;13.02;;;;;;;7.37;100.00;102893.59;10543006;28;20048;-57
2021/12/14 04:20:38;;;;;;;19.15;13.27;;;;;;;7.21;100.00;102886.81;10543076;28;20052;-57
2021/12/14 04:25:40;;;;;;;17.95;13.15;;;;;;;7.22;100.00;102881.59;10542684;28;20044;-57
2021/12/14 04:30:43;;;;;;;17.50;13.25;;;;;;;7.17;100.00;102864.28;10542712;28;20062;-58
2021/12/14 04:35:48;;;;;;;11.65;10.45;;;;;;;7.22;100.00;102873.78;10542425;28;20060;-57
2021/12/14 04:57:43;;;;;;;16.30;11.48;;;;;;;7.05;100.00;102844.44;10453985;28;20049;-58
2021/12/14 05:02:46;;;;;;;14.00;10.57;;;;;;;7.21;100.00;102843.41;10529282;28;20048;-57
2021/12/14 05:13:27;;;;;;;13.10;10.27;;;;;;;6.97;100.00;102838.44;10541060;28;20062;-58
2021/12/14 05:18:30;;;;;;;16.77;10.32;;;;;;;7.04;100.00;102834.88;10541164;28;20044;-57
2021/12/14 05:23:34;;;;;;;12.00;9.70;;;;;;;7.01;100.00;102830.59;10540379;28;20498;-57
2021/12/14 05:28:37;;;;;;;16.90;11.73;;;;;;;6.95;100.00;102827.19;10540413;28;20062;-58
2021/12/14 05:33:40;;;;;;;14.98;10.18;;;;;;;7.12;100.00;102824.41;10539732;28;20052;-58
2021/12/14 05:38:56;;;;;;;17.25;10.90;;;;;;;7.09;100.00;102827.03;10540348;28;20047;-57
2021/12/14 05:44:00;;;;;;;15.95;10.43;;;;;;;6.92;100.00;102830.66;10539513;28;20067;-57
2021/12/14 05:49:06;;;;;;;15.38;11.05;;;;;;;6.96;100.00;102831.50;10539766;28;20047;-58
2021/12/14 05:54:09;;;;;;;13.82;10.13;;;;;;;6.93;100.00;102849.78;10540268;28;20059;-55
2021/12/14 05:59:11;;;;;;;18.02;11.73;;;;;;;6.95;100.00;102846.25;10539676;28;20044;-56
2021/12/14 06:04:14;;;;;;;18.88;11.25;;;;;;;7.00;100.00;102854.03;10538310;28;20496;-57
2021/12/14 06:09:24;;;;;;;17.08;12.23;;;;;;;6.91;100.00;102860.19;10539568;28;20048;-58
2021/12/14 06:14:28;;;;;;;21.20;12.40;;;;;;;6.92;100.00;102850.63;10539363;28;20052;-59
2021/12/14 06:19:38;;;;;;;20.50;13.98;;;;;;;6.83;100.00;102852.44;10539696;28;20059;-57
2021/12/14 06:24:44;;;;;;;27.27;14.90;;;;;;;6.95;100.00;102874.06;10537928;28;20044;-58
2021/12/14 06:29:50;;;;;;;19.88;13.45;;;;;;;6.93;100.00;102874.06;10539019;28;20404;-56
2021/12/14 06:35:00;;;;;;;22.13;15.00;;;;;;;6.90;100.00;102868.88;10538952;28;20048;-57
2021/12/14 06:40:19;;;;;;;29.15;17.20;;;;;;;6.94;100.00;102869.72;10538799;28;20039;-57
2021/12/14 06:45:23;;;;;;;26.13;15.82;;;;;;;7.03;100.00;102885.28;10546513;28;20060;-56
2021/12/14 06:50:28;;;;;;;29.35;17.83;;;;;;;6.93;100.00;102888.84;10546453;28;20496;-56
2021/12/14 06:55:33;;;;;;;22.30;14.85;;;;;;;6.94;100.00;102894.00;10546547;28;20071;-59
2021/12/14 07:00:38;;;;;;;26.25;16.70;;;;;;;6.86;100.00;102893.22;10545423;28;20055;-57
2021/12/14 07:05:45;;;;;;;26.20;16.98;;;;;;;6.82;100.00;102900.19;10546044;28;20457;-57
2021/12/14 07:10:48;;;;;;;31.48;18.20;;;;;;;6.95;100.00;102910.50;10545938;28;20518;-58
2021/12/14 07:15:51;;;;;;;28.08;17.75;;;;;;;7.00;100.00;102906.97;10546085;28;20044;-58
2021/12/14 07:20:54;;;;;;;30.58;17.98;;;;;;;6.96;100.00;102913.09;10545411;28;20046;-59
2021/12/14 07:26:14;;;;;;;30.10;17.67;;;;;;;6.92;100.00;102927.00;10545803;28;20041;-57
2021/12/14 07:31:21;;;;;;;29.88;19.17;;;;;;;6.93;100.00;102928.75;10544267;28;20052;-58
2021/12/14 07:36:27;;;;;;;32.75;19.90;;;;;;;6.84;100.00;103111.09;10545318;28;20051;-56
2021/12/14 07:41:32;;;;;;;30.27;18.33;;;;;;;6.96;100.00;103027.69;10544412;28;20075;-56
2021/12/14 07:46:55;;;;;;;33.17;20.55;;;;;;;6.86;100.00;103015.63;10545245;28;20135;-57
2021/12/14 07:52:03;;;;;;;30.92;18.55;;;;;;;6.88;100.00;103019.06;10543714;28;20059;-58
2021/12/14 07:57:28;;;;;;;34.45;19.65;;;;;;;6.86;100.00;103010.41;10544225;28;20040;-57
2021/12/14 08:02:36;;;;;;;34.85;20.60;;;;;;;6.84;100.00;103013.03;10543515;28;20419;-56
2021/12/14 08:08:07;;;;;;;30.02;19.48;;;;;;;6.92;100.00;102999.09;10542689;28;20056;-57
2021/12/14 08:13:21;;;;;;;35.08;19.60;;;;;;;6.97;100.00;103011.19;10543084;28;20048;-57
2021/12/14 08:18:30;;;;;;;32.25;20.55;;;;;;;6.98;100.00;103018.13;10543607;28;20504;-56
2021/12/14 08:23:41;;;;;;;36.92;21.17;;;;;;;6.94;100.00;103015.56;10542746;28;20502;-58
2021/12/14 08:28:55;;;;;;;39.08;21.77;;;;;;;6.99;100.00;103012.06;10542640;28;20396;-57
2021/12/14 08:34:06;;;;;;;36.78;20.85;;;;;;;7.15;100.00;103018.00;10542600;28;20055;-57
2021/12/14 08:39:31;;;;;;;39.25;21.55;;;;;;;7.07;100.00;103022.41;10542745;28;20101;-59
2021/12/14 08:44:37;;;;;;;41.95;23.85;;;;;;;7.04;100.00;103010.28;10541886;28;20059;-57
2021/12/14 08:49:41;;;;;;;40.13;23.55;;;;;;;7.03;100.00;103005.94;10542228;28;20044;-58
2021/12/14 08:54:44;;;;;;;37.55;22.27;;;;;;;7.07;100.00;103020.66;10541734;28;20423;-58
2021/12/14 08:59:49;;;;;;;34.13;20.85;;;;;;;7.21;100.00;103019.69;10541919;28;20404;-57
2021/12/14 09:05:07;;;;;;;36.33;21.10;;;;;;;7.24;100.00;103006.66;10540471;28;20048;-59
2021/12/14 09:10:14;;;;;;;37.70;21.08;;;;;;;7.35;100.00;103012.66;10539576;28;20484;-57
2021/12/14 09:15:26;;;;;;;40.50;23.13;;;;;;;7.43;100.00;103017.78;10540284;28;20052;-59
2021/12/14 09:20:41;;;;;;;43.35;25.38;;;;;;;7.36;100.00;103022.19;10541217;28;20051;-56
2021/12/14 09:25:44;;;;;;;44.45;24.38;;;;;;;7.49;100.00;103093.31;10540501;28;20476;-59
2021/12/14 09:30:52;;;;;;;45.92;26.05;;;;;;;7.44;100.00;103101.16;10540434;28;20055;-59
2021/12/14 09:35:56;;;;;;;50.60;26.88;;;;;;;7.70;100.00;103065.34;10540311;28;20412;-59
2021/12/14 09:41:04;;;;;;;45.75;25.88;;;;;;;7.68;100.00;103061.88;10539896;28;20476;-58
2021/12/14 09:46:09;;;;;;;49.35;27.10;;;;;;;7.73;100.00;103057.50;10540514;28;20109;-58
2021/12/14 09:51:18;;;;;;;47.67;27.35;;;;;;;7.72;100.00;103027.09;10539777;28;20047;-58
2021/12/14 09:56:22;;;;;;;48.75;28.15;;;;;;;7.66;100.00;103029.75;10540197;28;20047;-59
2021/12/14 10:01:56;;;;;;;47.78;28.90;;;;;;;7.72;100.00;103019.28;10539629;28;20056;-58
2021/12/14 10:07:02;;;;;;;49.13;28.70;;;;;;;8.07;100.00;103037.16;10539596;28;20083;-57
2021/12/14 10:12:29;;;;;;;40.80;23.58;;;;;;;8.14;100.00;103036.19;10539467;28;20052;-58
2021/12/14 10:17:31;;;;;;;43.53;27.05;;;;;;;8.17;100.00;103010.06;10543635;28;20048;-58
2021/12/14 10:22:34;;;;;;;51.22;27.95;;;;;;;7.82;100.00;103019.16;10547819;28;20051;-58
2021/12/14 10:27:37;;;;;;;48.30;27.10;;;;;;;7.98;100.00;103027.69;10548000;28;20048;-58
2021/12/14 10:32:40;;;;;;;51.72;29.40;;;;;;;8.07;100.00;103031.94;10547263;28;20557;-58
2021/12/14 10:38:07;;;;;;;46.28;27.77;;;;;;;8.05;100.00;103025.84;10547247;28;20048;-58
2021/12/14 10:48:13;;;;;;;57.42;31.50;;;;;;;8.26;100.00;103034.34;10546909;28;20483;-58
2021/12/14 10:53:16;;;;;;;54.20;30.70;;;;;;;8.34;100.00;103037.72;10546528;28;20048;-58
2021/12/14 10:58:22;;;;;;;50.80;29.52;;;;;;;8.39;100.00;103033.31;10546503;28;20048;-58
2021/12/14 11:03:28;;;;;;;48.78;28.23;;;;;;;8.28;100.00;103032.56;10546141;28;20055;-58
2021/12/14 11:08:47;;;;;;;55.20;30.80;;;;;;;8.48;100.00;103030.59;10546590;28;20044;-58
2021/12/14 11:14:00;;;;;;;50.85;30.23;;;;;;;8.32;100.00;103034.25;10546037;28;20135;-58
2021/12/14 11:19:06;;;;;;;52.35;31.33;;;;;;;8.52;100.00;103029.69;10546329;28;20040;-59
2021/12/14 11:24:09;;;;;;;47.47;28.88;;;;;;;8.69;100.00;103025.97;10545309;28;20048;-58
2021/12/14 11:29:16;;;;;;;55.40;31.92;;;;;;;8.59;100.00;103027.88;10544619;28;20052;-59
2021/12/14 11:34:35;;;;;;;49.30;29.63;;;;;;;8.89;100.00;103017.84;10544781;28;20396;-58
2021/12/14 11:39:47;;;;;;;55.80;30.45;;;;;;;9.28;100.00;103036.44;10545637;28;20052;-58
2021/12/14 11:44:52;;;;;;;53.03;31.83;;;;;;;8.99;100.00;103015.97;10544506;28;20051;-58
2021/12/14 11:50:04;;;;;;;49.78;31.08;;;;;;;8.93;100.00;103017.78;10544332;28;20051;-57
2021/12/14 11:55:41;;;;;;;53.60;32.60;;;;;;;9.00;100.00;102994.19;10544712;28;20048;-60
2021/12/14 12:01:04;;;;;;;58.97;33.92;;;;;;;8.96;100.00;102987.28;10540535;28;20142;-58
2021/12/14 12:06:44;;;;;;;54.30;32.60;;;;;;;9.22;100.00;102999.94;10543648;28;20055;-58
2021/12/14 12:11:48;;;;;;;51.53;31.83;;;;;;;9.08;100.00;102990.56;10543862;28;20052;-60
2021/12/14 12:16:52;;;;;;;52.05;32.33;;;;;;;8.96;100.00;102979.44;10543393;28;20040;-56
2021/12/14 12:21:56;;;;;;;59.15;33.60;;;;;;;8.99;100.00;102969.78;10542916;28;20055;-57
2021/12/14 12:27:29;;;;;;;62.22;37.75;;;;;;;8.90;100.00;102977.78;10541721;28;20044;-58
2021/12/14 12:32:32;;;;;;;58.05;36.03;;;;;;;8.98;100.00;102986.38;10543013;28;20044;-58
2021/12/14 12:37:41;;;;;;;53.58;32.35;;;;;;;8.92;100.00;102989.91;10542558;28;20048;-58
2021/12/14 12:42:44;;;;;;;58.88;34.30;;;;;;;8.99;100.00;102993.31;10542159;28;20472;-58
2021/12/14 12:47:46;;;;;;;57.20;35.33;;;;;;;8.83;100.00;102986.63;10542027;28;20052;-58
2021/12/14 12:52:49;;;;;;;57.80;35.25;;;;;;;8.89;100.00;103179.81;10542167;28;20105;-60
2021/12/14 12:57:55;;;;;;;61.72;35.25;;;;;;;8.89;100.00;103104.06;10541976;28;20044;-59
2021/12/14 13:03:17;;;;;;;57.28;34.00;;;;;;;8.83;100.00;103109.38;10540602;28;20097;-60
2021/12/14 13:08:35;;;;;;;60.85;35.58;;;;;;;8.76;100.00;103084.22;10541534;28;20044;-61
2021/12/14 13:13:45;;;;;;;67.30;37.20;;;;;;;9.04;100.00;103082.09;10541168;28;20052;-59
2021/12/14 13:19:03;;;;;;;64.18;37.38;;;;;;;8.94;100.00;103086.56;10541523;28;20044;-58
2021/12/14 13:24:16;;;;;;;62.60;36.42;;;;;;;8.83;100.00;103091.97;10540850;28;20528;-60
2021/12/14 13:29:26;;;;;;;66.55;35.15;;;;;;;8.75;100.00;103080.75;10540283;28;20043;-60
2021/12/14 13:34:36;;;;;;;67.75;36.00;;;;;;;8.94;100.00;103112.69;10541155;28;20052;-60
2021/12/14 13:39:40;;;;;;;68.25;37.95;;;;;;;8.90;100.00;103119.72;10540217;28;20476;-60
2021/12/14 13:44:50;;;;;;;73.03;38.42;;;;;;;8.82;100.00;102998.78;10539990;28;20060;-61
2021/12/14 13:49:54;;;;;;;70.13;39.78;;;;;;;8.98;100.00;103184.94;10539665;28;20128;-58
2021/12/14 13:55:19;;;;;;;79.20;40.45;;;;;;;8.90;100.00;103140.63;10539398;28;20062;-57
2021/12/14 14:00:44;;;;;;;77.78;38.25;;;;;;;8.73;100.00;103129.53;10540046;28;20480;-59
2021/12/14 14:05:47;;;;;;;82.43;41.47;;;;;;;8.77;100.00;103131.22;10531968;28;20044;-59
2021/12/14 14:10:51;;;;;;;73.97;37.72;;;;;;;8.74;100.00;103097.28;10539573;28;20048;-59
2021/12/14 14:15:55;;;;;;;80.80;40.03;;;;;;;8.59;100.00;103127.09;10539800;28;20048;-61
2021/12/14 14:20:58;;;;;;;65.63;34.58;;;;;;;8.71;100.00;103086.91;10538483;28;20127;-60
2021/12/14 14:26:04;;;;;;;81.82;40.25;;;;;;;8.63;100.00;103020.84;10538502;28;20055;-58
2021/12/14 14:31:08;;;;;;;89.65;43.42;;;;;;;8.56;100.00;103007.00;10539599;28;20055;-59
2021/12/14 14:36:26;;;;;;;87.65;41.45;;;;;;;8.67;100.00;103019.91;10539216;28;20044;-57
2021/12/14 14:41:32;;;;;;;71.30;37.17;;;;;;;8.70;100.00;103009.44;10538892;28;20407;-59
2021/12/14 14:46:38;;;;;;;90.07;42.63;;;;;;;8.67;100.00;103030.34;10538853;28;20082;-59
2021/12/14 14:51:50;;;;;;;82.38;40.03;;;;;;;8.69;100.00;103021.63;10539334;28;20056;-58
2021/12/14 14:56:53;;;;;;;74.40;37.83;;;;;;;8.68;100.00;103040.78;10538609;28;20503;-57
2021/12/14 15:01:55;;;;;;;98.50;44.05;;;;;;;8.59;100.00;103055.69;10539390;28;20052;-59
2021/12/14 15:07:00;;;;;;;102.72;46.03;;;;;;;8.59;100.00;103032.19;10544726;28;20438;-60
2021/12/14 15:12:05;;;;;;;96.55;43.35;;;;;;;8.67;100.00;103048.63;10545650;28;20048;-57
2021/12/14 15:17:22;;;;;;;106.18;46.05;;;;;;;8.91;100.00;103050.91;10546260;28;20047;-59
2021/12/14 15:22:34;;;;;;;109.18;47.03;;;;;;;8.67;100.00;103061.69;10545188;28;20051;-59
2021/12/14 15:27:38;;;;;;;95.88;43.95;;;;;;;8.71;100.00;103064.25;10546148;28;20127;-58
2021/12/14 15:33:03;;;;;;;93.15;43.42;;;;;;;8.65;100.00;103059.09;10544985;28;20059;-57
2021/12/14 15:38:10;;;;;;;106.65;45.65;;;;;;;8.70;100.00;103065.13;10545416;28;20519;-57
2021/12/14 15:43:21;;;;;;;97.50;47.60;;;;;;;8.60;100.00;103066.13;10544453;28;20051;-55
2021/12/14 15:48:27;;;;;;;94.13;43.10;;;;;;;8.72;100.00;103063.38;10544901;28;20056;-58
2021/12/14 15:53:45;;;;;;;102.55;45.17;;;;;;;8.64;100.00;103064.34;10544121;28;20055;-56
2021/12/14 15:58:53;;;;;;;100.85;45.65;;;;;;;8.61;100.00;103057.44;10544122;28;20443;-56
2021/12/14 16:04:00;;;;;;;89.55;43.22;;;;;;;8.70;100.00;103059.91;10543573;28;20040;-57
2021/12/14 16:09:10;;;;;;;107.32;46.60;;;;;;;8.69;100.00;103059.91;10544063;28;20044;-56
2021/12/14 16:19:40;;;;;;;97.18;46.45;;;;;;;8.66;100.00;103067.81;10543103;28;20052;-57
2021/12/14 16:24:47;;;;;;;100.90;46.35;;;;;;;8.67;100.00;103066.91;10542911;28;20511;-60
2021/12/14 16:29:50;;;;;;;95.25;43.95;;;;;;;8.69;100.00;103102.59;10542561;28;20044;-56
2021/12/14 16:34:53;;;;;;;106.57;47.75;;;;;;;8.55;100.00;103086.22;10542460;28;20052;-58
2021/12/14 16:39:55;;;;;;;83.13;43.00;;;;;;;8.69;100.00;103080.81;10542136;28;20048;-58
2021/12/14 16:45:08;;;;;;;101.20;48.42;;;;;;;8.70;100.00;103079.94;10542221;28;20063;-58
2021/12/14 16:50:23;;;;;;;108.85;48.42;;;;;;;8.60;100.00;103075.72;10541392;28;20050;-57
2021/12/14 16:55:30;;;;;;;92.22;44.63;;;;;;;8.58;100.00;103088.78;10542026;28;20101;-56
2021/12/14 17:00:54;;;;;;;95.22;44.80;;;;;;;8.55;100.00;103081.00;10542397;28;20055;-59
2021/12/14 17:06:01;;;;;;;87.15;41.92;;;;;;;8.59;100.00;103089.66;10541006;28;20044;-59
2021/12/14 17:11:08;;;;;;;96.93;43.10;;;;;;;8.68;100.00;103100.84;10541027;28;20052;-58
2021/12/14 17:16:10;;;;;;;96.63;47.60;;;;;;;8.66;100.00;103093.94;10541141;28;20044;-59
2021/12/14 17:21:22;;;;;;;87.82;42.95;;;;;;;8.60;100.00;103091.38;10540851;28;20048;-58
2021/12/14 17:26:25;;;;;;;95.88;43.83;;;;;;;8.60;100.00;103096.63;10539620;28;20504;-58
2021/12/14 17:31:37;;;;;;;88.93;43.25;;;;;;;8.72;100.00;103096.44;10540403;28;20052;-58
2021/12/14 17:36:41;;;;;;;103.45;47.15;;;;;;;8.49;100.00;103131.56;10540635;28;20105;-57
2021/12/14 17:41:49;;;;;;;74.10;38.78;;;;;;;8.56;100.00;103114.06;10540237;28;20129;-59
2021/12/14 17:47:01;;;;;;;91.43;43.30;;;;;;;8.53;100.00;103112.34;10538818;28;20062;-57
2021/12/14 17:52:18;;;;;;;72.80;38.10;;;;;;;8.60;100.00;103122.72;10539873;28;20059;-56
2021/12/14 17:57:25;;;;;;;87.80;43.55;;;;;;;8.62;100.00;103115.72;10538902;28;20047;-57
2021/12/14 18:02:34;;;;;;;97.70;45.58;;;;;;;8.52;100.00;103120.19;10539343;28;20484;-59
2021/12/14 18:07:43;;;;;;;113.75;50.65;;;;;;;8.53;100.00;103116.72;10538183;28;20541;-60
2021/12/14 18:12:49;;;;;;;92.47;44.50;;;;;;;8.65;100.00;103126.16;10539462;28;20052;-59
2021/12/14 18:19:01;;;;;;;91.63;42.83;;;;;;;8.67;100.00;103138.28;10539787;28;20051;-59
2021/12/14 18:23:21;;;;;;;101.55;43.80;;;;;;;8.68;100.00;103132.19;10539553;28;20041;-59
2021/12/14 18:28:24;;;;;;;76.00;40.55;;;;;;;8.51;100.00;103140.22;10539157;28;20052;-62
2021/12/14 18:33:27;;;;;;;96.60;45.47;;;;;;;8.53;100.00;103148.03;10539041;28;20044;-59
2021/12/14 18:38:30;;;;;;;77.88;39.95;;;;;;;8.67;100.00;103159.19;10543750;28;20052;-60
2021/12/14 18:43:41;;;;;;;70.68;38.15;;;;;;;8.58;100.00;103182.78;10547319;28;20051;-58
2021/12/14 18:54:11;;;;;;;90.28;43.35;;;;;;;8.50;100.00;103222.03;10546654;28;20052;-58
2021/12/14 18:59:20;;;;;;;105.18;46.20;;;;;;;8.53;100.00;103222.00;10546765;28;20055;-58
2021/12/14 19:04:30;;;;;;;84.57;42.53;;;;;;;8.57;100.00;103232.44;10546211;28;20040;-57
2021/12/14 19:09:47;;;;;;;80.10;41.28;;;;;;;8.60;100.00;103253.28;10546107;28;20047;-57
2021/12/14 19:15:26;;;;;;;93.63;43.03;;;;;;;8.44;100.00;103244.72;10544442;28;20052;-60
2021/12/14 19:20:52;;;;;;;93.22;43.85;;;;;;;8.58;100.00;103250.69;10545199;28;20055;-58
2021/12/14 19:25:55;;;;;;;103.07;43.78;;;;;;;8.46;100.00;103295.19;10545463;28;20051;-59
2021/12/14 19:31:10;;;;;;;70.65;38.03;;;;;;;8.52;100.00;103306.47;10545416;28;20382;-59
2021/12/14 19:36:14;;;;;;;89.95;43.25;;;;;;;8.59;100.00;103306.38;10544901;28;20561;-60
2021/12/14 19:41:29;;;;;;;100.72;45.85;;;;;;;8.61;100.00;103315.94;10544807;28;20044;-59
2021/12/14 19:46:35;;;;;;;86.65;43.15;;;;;;;8.41;100.00;103346.56;10544693;28;20063;-60
2021/12/14 19:51:41;;;;;;;89.35;41.90;;;;;;;8.51;100.00;103350.84;10543295;28;20549;-59
2021/12/14 19:56:47;;;;;;;83.50;40.80;;;;;;;8.54;100.00;103337.78;10544137;28;20492;-58
2021/12/14 20:01:49;;;;;;;105.88;47.83;;;;;;;8.47;100.00;103389.19;10544690;28;20052;-63
2021/12/14 20:06:59;;;;;;;89.75;44.58;;;;;;;8.48;100.00;103390.91;10543763;28;20048;-60
2021/12/14 20:12:17;;;;;;;87.60;42.72;;;;;;;8.58;100.00;103362.13;10543657;28;20404;-58
2021/12/14 20:17:26;;;;;;;72.22;37.70;;;;;;;8.52;100.00;103428.28;10543337;28;20048;-59
2021/12/14 20:22:41;;;;;;;77.85;39.33;;;;;;;8.48;100.00;103427.44;10543736;28;20052;-60
2021/12/14 20:27:47;;;;;;;85.15;43.08;;;;;;;8.51;100.00;103398.72;10542954;28;20453;-58
2021/12/14 20:32:51;;;;;;;94.78;44.67;;;;;;;8.60;100.00;103394.31;10542755;28;20044;-59
2021/12/14 20:37:59;;;;;;;85.88;42.55;;;;;;;8.62;100.00;103416.91;10543430;28;20063;-59
2021/12/14 20:43:23;;;;;;;83.45;41.67;;;;;;;8.61;100.00;103396.03;10542420;28;20052;-57
2021/12/14 20:48:35;;;;;;;76.18;41.15;;;;;;;8.57;100.00;103403.00;10541978;28;20052;-59
2021/12/14 20:53:40;;;;;;;85.53;43.72;;;;;;;8.57;100.00;103413.47;10541723;28;20515;-59
2021/12/14 20:58:53;;;;;;;77.72;41.08;;;;;;;8.63;100.00;103441.28;10541083;28;20082;-60
2021/12/14 21:04:04;;;;;;;78.85;41.80;;;;;;;8.57;100.00;103460.47;10540407;28;20047;-59
2021/12/14 21:09:13;;;;;;;72.93;39.67;;;;;;;8.42;100.00;103448.34;10541794;28;20040;-60
2021/12/14 21:14:19;;;;;;;77.97;38.22;;;;;;;8.53;100.00;103457.00;10539829;28;20427;-59
2021/12/14 21:19:23;;;;;;;93.22;44.22;;;;;;;8.54;100.00;103481.41;10541778;28;20044;-58
2021/12/14 21:24:27;;;;;;;84.07;42.28;;;;;;;8.54;100.00;103484.00;10540729;28;20408;-60
2021/12/14 21:29:29;;;;;;;77.63;40.05;;;;;;;8.55;100.00;103489.19;10540075;28;20047;-61
2021/12/14 21:34:32;;;;;;;83.22;43.35;;;;;;;8.42;100.00;103497.94;10539364;28;20056;-61
2021/12/14 21:39:34;;;;;;;84.25;42.33;;;;;;;8.47;100.00;103500.56;10540287;28;20499;-58
2021/12/14 21:45:11;;;;;;;88.22;44.05;;;;;;;8.57;100.00;103530.97;10522124;28;20414;-58
2021/12/14 21:50:17;;;;;;;85.57;43.60;;;;;;;8.51;100.00;103523.19;10539669;28;20044;-59
2021/12/14 21:55:23;;;;;;;89.88;45.00;;;;;;;8.60;100.00;103545.78;10540244;28;20059;-58
2021/12/14 22:00:28;;;;;;;81.05;41.75;;;;;;;8.60;100.00;103545.78;10539802;28;20090;-58
2021/12/14 22:05:33;;;;;;;89.35;42.88;;;;;;;8.65;100.00;103570.97;10539725;28;20040;-59
2021/12/14 22:10:36;;;;;;;90.93;46.72;;;;;;;8.42;100.00;103558.00;10539573;28;20052;-58
2021/12/14 22:15:46;;;;;;;100.03;48.17;;;;;;;8.55;100.00;103556.25;10547585;28;20052;-57
2021/12/14 22:20:51;;;;;;;99.85;48.50;;;;;;;8.63;100.00;103619.75;10548158;28;20048;-57
2021/12/14 22:25:54;;;;;;;96.93;46.58;;;;;;;8.50;100.00;103589.34;10547860;28;20051;-58
2021/12/14 22:30:56;;;;;;;78.40;42.30;;;;;;;8.50;100.00;103584.13;10547597;28;20510;-60
2021/12/14 22:35:59;;;;;;;99.85;44.88;;;;;;;8.51;100.00;103605.00;10547521;28;20102;-59
2021/12/14 22:41:23;;;;;;;115.03;49.65;;;;;;;8.48;100.00;103604.16;10547407;28;20044;-60
2021/12/14 22:46:28;;;;;;;97.22;47.15;;;;;;;8.46;100.00;103640.72;10546928;28;20504;-59
2021/12/14 22:51:30;;;;;;;89.72;45.25;;;;;;;8.47;100.00;103611.13;10547576;28;20112;-56
2021/12/14 22:56:33;;;;;;;83.25;43.08;;;;;;;8.54;100.00;103641.56;10546759;28;20051;-57
2021/12/14 23:01:40;;;;;;;77.25;40.97;;;;;;;8.44;100.00;103671.19;10546662;28;20044;-60
2021/12/14 23:06:42;;;;;;;87.15;45.33;;;;;;;8.53;100.00;103667.66;10545963;28;20446;-58
2021/12/14 23:11:45;;;;;;;77.13;42.03;;;;;;;8.58;100.00;103676.34;10546478;28;20069;-59
2021/12/14 23:16:55;;;;;;;84.18;43.78;;;;;;;8.49;100.00;103653.75;10545953;28;20077;-58
2021/12/14 23:22:00;;;;;;;78.07;38.88;;;;;;;8.54;100.00;103645.91;10545688;28;20048;-58
2021/12/14 23:27:03;;;;;;;77.05;38.83;;;;;;;8.42;100.00;103648.50;10544356;28;20071;-59
2021/12/14 23:32:06;;;;;;;76.65;39.53;;;;;;;8.47;100.00;103638.97;10545215;28;20431;-59
2021/12/14 23:37:08;;;;;;;79.18;42.85;;;;;;;8.31;100.00;103631.13;10545591;28;20055;-60
2021/12/14 23:42:13;;;;;;;85.65;41.95;;;;;;;8.30;100.00;103618.09;10545291;28;20476;-58
2021/12/14 23:47:22;;;;;;;73.18;36.17;;;;;;;8.37;100.00;103643.28;10545129;28;20060;-57
2021/12/14 23:52:25;;;;;;;76.78;39.05;;;;;;;8.36;100.00;103624.16;10544398;28;20044;-57